createdAt,value
2024-03-31T00:00:06.618Z,93498.00
2024-03-31T00:01:06.717Z,93488.00
2024-03-31T00:02:06.771Z,93478.00
2024-03-31T00:03:06.840Z,93466.00
2024-03-31T00:04:06.911Z,93478.00
2024-03-31T00:05:06.989Z,93479.00
2024-03-31T00:06:07.074Z,93465.00
2024-03-31T00:07:07.144Z,93453.00
2024-03-31T00:08:07.221Z,93457.00
2024-03-31T00:09:07.319Z,93440.00
2024-03-31T00:10:07.412Z,93405.00
2024-03-31T00:11:07.478Z,93434.00
2024-03-31T00:12:07.561Z,93455.00
2024-03-31T00:13:07.640Z,93480.00
2024-03-31T00:14:07.751Z,93479.00
2024-03-31T00:15:07.776Z,93487.00
2024-03-31T00:16:07.860Z,93491.00
2024-03-31T00:17:07.939Z,93510.00
2024-03-31T00:18:08.043Z,93500.00
2024-03-31T00:19:08.126Z,93507.00
2024-03-31T00:20:08.148Z,93500.00
2024-03-31T00:21:08.232Z,93495.00
2024-03-31T00:22:08.308Z,93491.00
2024-03-31T00:23:08.404Z,93487.00
2024-03-31T00:24:08.458Z,93491.00
2024-03-31T00:25:08.550Z,93495.00
2024-03-31T00:26:08.617Z,93490.00
2024-03-31T00:27:08.731Z,93482.00
2024-03-31T00:28:08.780Z,93480.00
2024-03-31T00:29:08.846Z,93483.00
2024-03-31T00:30:08.884Z,93482.00
2024-03-31T00:31:08.976Z,93479.00
2024-03-31T00:32:09.046Z,93483.00
2024-03-31T00:33:09.122Z,93478.00
2024-03-31T00:34:09.196Z,93485.00
2024-03-31T00:35:09.263Z,93482.00
2024-03-31T00:36:09.377Z,93499.00
2024-03-31T00:37:09.464Z,93507.00
2024-03-31T00:38:09.506Z,93514.00
2024-03-31T00:39:09.592Z,93526.00
2024-03-31T00:40:09.644Z,93529.00
2024-03-31T00:41:09.730Z,93509.00
2024-03-31T00:42:09.836Z,93495.00
2024-03-31T00:43:09.888Z,93486.00
2024-03-31T00:44:09.968Z,93490.00
2024-03-31T00:45:10.033Z,93492.00
2024-03-31T00:46:10.115Z,93495.00
2024-03-31T00:47:10.239Z,93492.00
2024-03-31T00:48:10.307Z,93492.00
2024-03-31T00:49:10.363Z,93486.00
2024-03-31T00:50:10.465Z,93488.00
2024-03-31T00:51:10.518Z,93494.00
2024-03-31T00:52:10.600Z,93503.00
2024-03-31T00:53:10.686Z,93508.00
2024-03-31T00:54:10.762Z,93492.00
2024-03-31T00:55:10.872Z,93499.00
2024-03-31T00:56:10.949Z,93510.00
2024-03-31T00:57:11.003Z,93524.00
2024-03-31T00:58:11.087Z,93520.00
2024-03-31T00:59:11.175Z,93523.00
2024-03-31T01:00:11.277Z,93530.00
2024-03-31T01:01:11.341Z,93532.00
2024-03-31T01:02:11.399Z,93546.00
2024-03-31T01:03:11.472Z,93557.00
2024-03-31T01:04:11.563Z,93562.00
2024-03-31T01:05:11.648Z,93554.00
2024-03-31T01:06:11.689Z,93545.00
2024-03-31T01:07:11.764Z,93557.00
2024-03-31T01:08:11.892Z,93573.00
2024-03-31T01:09:11.944Z,93588.00
2024-03-31T01:10:12.039Z,93593.00
2024-03-31T01:11:12.110Z,93593.00
2024-03-31T01:12:12.172Z,93610.00
2024-03-31T01:13:12.264Z,93610.00
2024-03-31T01:14:12.335Z,93609.00
2024-03-31T01:15:12.415Z,93608.00
2024-03-31T01:16:12.465Z,93608.00
2024-03-31T01:17:12.625Z,93611.00
2024-03-31T01:18:12.634Z,93617.00
2024-03-31T01:19:12.710Z,93629.00
2024-03-31T01:20:12.795Z,93636.00
2024-03-31T01:21:12.884Z,93637.00
2024-03-31T01:22:12.961Z,93645.00
2024-03-31T01:23:13.044Z,93655.00
2024-03-31T01:24:13.168Z,93665.00
2024-03-31T01:25:13.223Z,93666.00
2024-03-31T01:26:13.274Z,93668.00
2024-03-31T01:27:13.341Z,93660.00
2024-03-31T01:28:13.440Z,93654.00
2024-03-31T01:29:13.532Z,93649.00
2024-03-31T01:30:13.597Z,93642.00
2024-03-31T01:31:13.685Z,93638.00
2024-03-31T01:32:13.739Z,93643.00
2024-03-31T01:33:13.820Z,93654.00
2024-03-31T01:34:13.887Z,93658.00
2024-03-31T01:35:14.003Z,93657.00
2024-03-31T01:36:14.054Z,93660.00
2024-03-31T01:37:14.146Z,93654.00
2024-03-31T01:38:14.223Z,93646.00
2024-03-31T01:39:14.301Z,93639.00
2024-03-31T01:40:14.407Z,93634.00
2024-03-31T01:41:14.485Z,93637.00
2024-03-31T01:42:14.524Z,93628.00
2024-03-31T01:43:14.668Z,93634.00
2024-03-31T01:44:14.734Z,93640.00
2024-03-31T01:45:14.796Z,93644.00
2024-03-31T01:46:14.894Z,93643.00
2024-03-31T01:47:14.961Z,93648.00
2024-03-31T01:48:15.046Z,93652.00
2024-03-31T01:49:15.111Z,93652.00
2024-03-31T01:50:15.198Z,93658.00
2024-03-31T01:51:15.256Z,93663.00
2024-03-31T01:52:15.343Z,93668.00
2024-03-31T01:53:15.417Z,93665.00
2024-03-31T01:54:15.514Z,93667.00
2024-03-31T01:55:15.574Z,93672.00
2024-03-31T01:56:15.669Z,93675.00
2024-03-31T01:57:15.725Z,93676.00
2024-03-31T01:58:15.761Z,93679.00
2024-03-31T01:59:15.846Z,93681.00
2024-03-31T02:00:18.865Z,93681.00
2024-03-31T02:01:15.959Z,93684.00
2024-03-31T02:02:15.925Z,93694.00
2024-03-31T02:03:15.973Z,93701.00
2024-03-31T02:04:15.974Z,93703.00
2024-03-31T02:05:15.943Z,93703.00
2024-03-31T02:06:15.960Z,93697.00
2024-03-31T02:07:15.951Z,93690.00
2024-03-31T02:08:15.971Z,93684.00
2024-03-31T02:09:15.973Z,93682.00
2024-03-31T02:10:15.984Z,93677.00
2024-03-31T02:11:15.987Z,93681.00
2024-03-31T02:12:15.954Z,93683.00
2024-03-31T02:13:15.967Z,93696.00
2024-03-31T02:14:15.983Z,93687.00
2024-03-31T02:15:15.943Z,93682.00
2024-03-31T02:16:16.011Z,93688.00
2024-03-31T02:17:15.982Z,93683.00
2024-03-31T02:18:15.963Z,93684.00
2024-03-31T02:19:15.974Z,93686.00
2024-03-31T02:20:15.991Z,93654.00
2024-03-31T02:21:15.988Z,93644.00
2024-03-31T02:22:15.962Z,93643.00
2024-03-31T02:23:16.017Z,93628.00
2024-03-31T02:24:16.001Z,93617.00
2024-03-31T02:25:16.020Z,93633.00
2024-03-31T02:26:16.017Z,93631.00
2024-03-31T02:27:16.033Z,93634.00
2024-03-31T02:28:16.047Z,93637.00
2024-03-31T02:29:16.062Z,93638.00
2024-03-31T02:30:16.054Z,93642.00
2024-03-31T02:31:16.024Z,93629.00
2024-03-31T02:32:16.048Z,93619.00
2024-03-31T02:33:16.033Z,93618.00
2024-03-31T02:34:16.037Z,93621.00
2024-03-31T02:35:16.045Z,93616.00
2024-03-31T02:36:16.056Z,93629.00
2024-03-31T02:37:16.031Z,93620.00
2024-03-31T02:38:16.079Z,93618.00
2024-03-31T02:39:16.106Z,93617.00
2024-03-31T02:40:16.158Z,93612.00
2024-03-31T02:41:16.250Z,93618.00
2024-03-31T02:42:16.299Z,93610.00
2024-03-31T02:43:16.375Z,93607.00
2024-03-31T02:44:16.448Z,93605.00
2024-03-31T02:45:16.512Z,93608.00
2024-03-31T02:46:16.594Z,93607.00
2024-03-31T02:47:16.668Z,93593.00
2024-03-31T02:48:16.757Z,93585.00
2024-03-31T02:49:16.835Z,93595.00
2024-03-31T02:50:16.896Z,93585.00
2024-03-31T02:51:16.975Z,93585.00
2024-03-31T02:52:17.042Z,93590.00
2024-03-31T02:53:17.126Z,93589.00
2024-03-31T02:54:17.199Z,93586.00
2024-03-31T02:55:17.273Z,93589.00
2024-03-31T02:56:17.370Z,93567.00
2024-03-31T02:57:17.453Z,93578.00
2024-03-31T02:58:17.548Z,93581.00
2024-03-31T02:59:17.610Z,93585.00
2024-03-31T03:00:17.718Z,93578.00
2024-03-31T03:01:17.758Z,93579.00
2024-03-31T03:02:17.833Z,93587.00
2024-03-31T03:03:17.955Z,93587.00
2024-03-31T03:04:18.023Z,93581.00
2024-03-31T03:05:18.102Z,93576.00
2024-03-31T03:06:18.172Z,93579.00
2024-03-31T03:07:18.247Z,93597.00
2024-03-31T03:08:18.339Z,93575.00
2024-03-31T03:09:18.395Z,93568.00
2024-03-31T03:10:18.477Z,93583.00
2024-03-31T03:11:18.554Z,93588.00
2024-03-31T03:12:18.621Z,93587.00
2024-03-31T03:13:18.719Z,93589.00
2024-03-31T03:14:18.774Z,93576.00
2024-03-31T03:15:18.848Z,93588.00
2024-03-31T03:16:18.913Z,93589.00
2024-03-31T03:17:18.988Z,93579.00
2024-03-31T03:18:19.104Z,93570.00
2024-03-31T03:19:19.171Z,93589.00
2024-03-31T03:20:19.249Z,93580.00
2024-03-31T03:21:19.322Z,93564.00
2024-03-31T03:22:19.420Z,93578.00
2024-03-31T03:23:19.495Z,93578.00
2024-03-31T03:24:19.560Z,93578.00
2024-03-31T03:25:19.662Z,93577.00
2024-03-31T03:26:19.717Z,93572.00
2024-03-31T03:27:19.811Z,93565.00
2024-03-31T03:28:19.890Z,93563.00
2024-03-31T03:29:19.974Z,93551.00
2024-03-31T03:30:20.053Z,93555.00
2024-03-31T03:31:20.153Z,93560.00
2024-03-31T03:32:20.222Z,93559.00
2024-03-31T03:33:20.299Z,93568.00
2024-03-31T03:34:20.383Z,93569.00
2024-03-31T03:35:20.444Z,93565.00
2024-03-31T03:36:20.518Z,93571.00
2024-03-31T03:37:20.604Z,93561.00
2024-03-31T03:38:20.671Z,93555.00
2024-03-31T03:39:20.759Z,93550.00
2024-03-31T03:40:20.841Z,93567.00
2024-03-31T03:41:20.888Z,93559.00
2024-03-31T03:42:20.970Z,93553.00
2024-03-31T03:43:21.053Z,93554.00
2024-03-31T03:44:21.116Z,93562.00
2024-03-31T03:45:21.238Z,93554.00
2024-03-31T03:46:21.374Z,93546.00
2024-03-31T03:47:21.353Z,93552.00
2024-03-31T03:48:21.412Z,93544.00
2024-03-31T03:49:21.510Z,93556.00
2024-03-31T03:50:21.575Z,93544.00
2024-03-31T03:51:21.638Z,93551.00
2024-03-31T03:52:21.732Z,93548.00
2024-03-31T03:53:21.800Z,93543.00
2024-03-31T03:54:21.862Z,93544.00
2024-03-31T03:55:21.953Z,93539.00
2024-03-31T03:56:22.018Z,93548.00
2024-03-31T03:57:22.094Z,93552.00
2024-03-31T03:58:22.183Z,93552.00
2024-03-31T03:59:22.244Z,93542.00
2024-03-31T04:00:22.324Z,93544.00
2024-03-31T04:01:22.411Z,93543.00
2024-03-31T04:02:22.487Z,93543.00
2024-03-31T04:03:22.539Z,93545.00
2024-03-31T04:04:22.623Z,93555.00
2024-03-31T04:05:22.726Z,93551.00
2024-03-31T04:06:22.771Z,93545.00
2024-03-31T04:07:22.843Z,93552.00
2024-03-31T04:08:22.921Z,93547.00
2024-03-31T04:09:22.993Z,93554.00
2024-03-31T04:10:23.050Z,93554.00
2024-03-31T04:11:23.121Z,93555.00
2024-03-31T04:12:23.212Z,93559.00
2024-03-31T04:13:23.311Z,93559.00
2024-03-31T04:14:23.374Z,93564.00
2024-03-31T04:15:23.466Z,93566.00
2024-03-31T04:16:23.531Z,93572.00
2024-03-31T04:17:23.600Z,93561.00
2024-03-31T04:18:23.664Z,93547.00
2024-03-31T04:19:23.741Z,93555.00
2024-03-31T04:20:23.790Z,93551.00
2024-03-31T04:21:23.867Z,93557.00
2024-03-31T04:22:23.945Z,93559.00
2024-03-31T04:23:24.023Z,93559.00
2024-03-31T04:24:24.094Z,93560.00
2024-03-31T04:25:24.168Z,93568.00
2024-03-31T04:26:24.244Z,93577.00
2024-03-31T04:27:24.322Z,93562.00
2024-03-31T04:28:24.391Z,93569.00
2024-03-31T04:29:24.466Z,93561.00
2024-03-31T04:30:24.553Z,93554.00
2024-03-31T04:31:24.628Z,93567.00
2024-03-31T04:32:24.706Z,93567.00
2024-03-31T04:33:24.758Z,93556.00
2024-03-31T04:34:32.020Z,93554.00
2024-03-31T04:35:32.050Z,93556.00
2024-03-31T04:36:32.100Z,93563.00
2024-03-31T04:37:32.038Z,93562.00
2024-03-31T04:38:32.036Z,93562.00
2024-03-31T04:39:32.065Z,93553.00
2024-03-31T04:40:32.050Z,93543.00
2024-03-31T04:41:32.028Z,93555.00
2024-03-31T04:42:32.047Z,93554.00
2024-03-31T04:43:32.048Z,93567.00
2024-03-31T04:44:32.038Z,93567.00
2024-03-31T04:45:32.044Z,93561.00
2024-03-31T04:46:32.058Z,93569.00
2024-03-31T04:47:32.046Z,93564.00
2024-03-31T04:48:32.070Z,93554.00
2024-03-31T04:49:32.081Z,93554.00
2024-03-31T04:50:32.090Z,93550.00
2024-03-31T04:51:32.065Z,93554.00
2024-03-31T04:52:32.099Z,93553.00
2024-03-31T04:53:32.106Z,93549.00
2024-03-31T04:54:32.102Z,93559.00
2024-03-31T04:55:32.103Z,93572.00
2024-03-31T04:56:32.123Z,93561.00
2024-03-31T04:57:32.083Z,93564.00
2024-03-31T04:58:32.097Z,93557.00
2024-03-31T04:59:32.101Z,93549.00
2024-03-31T05:00:32.101Z,93556.00
2024-03-31T05:01:32.091Z,93564.00
2024-03-31T05:02:32.107Z,93574.00
2024-03-31T05:03:32.114Z,93570.00
2024-03-31T05:04:32.155Z,93561.00
2024-03-31T05:05:32.225Z,93570.00
2024-03-31T05:06:32.291Z,93581.00
2024-03-31T05:07:32.974Z,93573.00
2024-03-31T05:08:32.450Z,93559.00
2024-03-31T05:09:32.547Z,93564.00
2024-03-31T05:10:32.612Z,93562.00
2024-03-31T05:11:32.655Z,93544.00
2024-03-31T05:12:32.719Z,93551.00
2024-03-31T05:13:32.793Z,93561.00
2024-03-31T05:14:32.885Z,93565.00
2024-03-31T05:15:32.957Z,93565.00
2024-03-31T05:16:33.028Z,93557.00
2024-03-31T05:17:33.111Z,93564.00
2024-03-31T05:18:33.192Z,93561.00
2024-03-31T05:19:33.254Z,93570.00
2024-03-31T05:20:33.367Z,93584.00
2024-03-31T05:21:35.456Z,93585.00
2024-03-31T05:22:33.451Z,93570.00
2024-03-31T05:23:33.490Z,93574.00
2024-03-31T05:24:33.558Z,93569.00
2024-03-31T05:25:33.577Z,93580.00
2024-03-31T05:26:33.636Z,93585.00
2024-03-31T05:27:33.718Z,93583.00
2024-03-31T05:28:37.929Z,93579.00
2024-03-31T05:29:34.792Z,93592.00
2024-03-31T05:30:33.809Z,93588.00
2024-03-31T05:31:33.798Z,93599.00
2024-03-31T05:32:33.830Z,93586.00
2024-03-31T05:33:33.798Z,93606.00
2024-03-31T05:34:33.805Z,93582.00
2024-03-31T05:35:33.807Z,93596.00
2024-03-31T05:36:33.815Z,93632.00
2024-03-31T05:37:33.808Z,93611.00
2024-03-31T05:38:33.830Z,93628.00
2024-03-31T05:39:33.888Z,93599.00
2024-03-31T05:40:33.949Z,93604.00
2024-03-31T05:41:34.041Z,93598.00
2024-03-31T05:42:34.134Z,93614.00
2024-03-31T05:43:34.210Z,93625.00
2024-03-31T05:44:34.260Z,93609.00
2024-03-31T05:45:34.322Z,93611.00
2024-03-31T05:46:34.395Z,93614.00
2024-03-31T05:47:34.471Z,93618.00
2024-03-31T05:48:34.563Z,93611.00
2024-03-31T05:49:34.627Z,93604.00
2024-03-31T05:50:34.690Z,93587.00
2024-03-31T05:51:34.776Z,93598.00
2024-03-31T05:52:34.863Z,93613.00
2024-03-31T05:53:34.938Z,93617.00
2024-03-31T05:54:35.032Z,93617.00
2024-03-31T05:55:38.077Z,93639.00
2024-03-31T05:56:35.083Z,93601.00
2024-03-31T05:57:35.092Z,93646.00
2024-03-31T05:58:35.101Z,93614.00
2024-03-31T05:59:35.088Z,93627.00
2024-03-31T06:00:35.104Z,93627.00
2024-03-31T06:01:35.084Z,93611.00
2024-03-31T06:02:35.097Z,93620.00
2024-03-31T06:03:35.092Z,93615.00
2024-03-31T06:04:35.124Z,93632.00
2024-03-31T06:05:35.125Z,93617.00
2024-03-31T06:06:35.118Z,93640.00
2024-03-31T06:07:35.131Z,93639.00
2024-03-31T06:08:35.132Z,93634.00
2024-03-31T06:09:35.133Z,93635.00
2024-03-31T06:10:36.789Z,93634.00
2024-03-31T06:11:35.117Z,93637.00
2024-03-31T06:12:35.119Z,93636.00
2024-03-31T06:13:35.122Z,93652.00
2024-03-31T06:14:35.207Z,93652.00
2024-03-31T06:15:35.278Z,93656.00
2024-03-31T06:16:35.353Z,93654.00
2024-03-31T06:17:35.421Z,93652.00
2024-03-31T06:18:35.501Z,93657.00
2024-03-31T06:19:35.580Z,93651.00
2024-03-31T06:20:35.639Z,93647.00
2024-03-31T06:21:35.758Z,93645.00
2024-03-31T06:22:35.804Z,93633.00
2024-03-31T06:23:35.936Z,93651.00
2024-03-31T06:24:35.976Z,93653.00
2024-03-31T06:25:36.069Z,93659.00
2024-03-31T06:26:36.107Z,93661.00
2024-03-31T06:27:36.201Z,93653.00
2024-03-31T06:28:36.253Z,93651.00
2024-03-31T06:29:36.349Z,93652.00
2024-03-31T06:30:36.430Z,93662.00
2024-03-31T06:31:36.450Z,93650.00
2024-03-31T06:32:37.424Z,93654.00
2024-03-31T06:33:36.592Z,93646.00
2024-03-31T06:34:36.665Z,93645.00
2024-03-31T06:35:36.709Z,93648.00
2024-03-31T06:36:36.782Z,93654.00
2024-03-31T06:37:36.836Z,93669.00
2024-03-31T06:38:36.885Z,93658.00
2024-03-31T06:39:36.936Z,93658.00
2024-03-31T06:40:37.008Z,93657.00
2024-03-31T06:41:37.092Z,93663.00
2024-03-31T06:42:37.166Z,93652.00
2024-03-31T06:43:37.240Z,93674.00
2024-03-31T06:44:37.286Z,93672.00
2024-03-31T06:45:37.396Z,93661.00
2024-03-31T06:46:37.470Z,93667.00
2024-03-31T06:47:37.557Z,93664.00
2024-03-31T06:48:37.652Z,93653.00
2024-03-31T06:49:37.710Z,93669.00
2024-03-31T06:50:37.779Z,93669.00
2024-03-31T06:51:37.856Z,93669.00
2024-03-31T06:52:37.968Z,93666.00
2024-03-31T06:53:37.999Z,93666.00
2024-03-31T06:54:38.236Z,93662.00
2024-03-31T06:55:38.279Z,93659.00
2024-03-31T06:56:38.264Z,93662.00
2024-03-31T06:57:38.285Z,93664.00
2024-03-31T06:58:38.373Z,93648.00
2024-03-31T06:59:38.441Z,93657.00
2024-03-31T07:00:38.503Z,93657.00
2024-03-31T07:01:38.585Z,93651.00
2024-03-31T07:02:38.666Z,93662.00
2024-03-31T07:03:38.719Z,93649.00
2024-03-31T07:04:38.804Z,93645.00
2024-03-31T07:05:38.864Z,93657.00
2024-03-31T07:06:38.973Z,93658.00
2024-03-31T07:07:39.099Z,93651.00
2024-03-31T07:08:39.125Z,93648.00
2024-03-31T07:09:39.225Z,93639.00
2024-03-31T07:10:39.307Z,93637.00
2024-03-31T07:11:39.377Z,93639.00
2024-03-31T07:12:39.436Z,93635.00
2024-03-31T07:13:39.499Z,93645.00
2024-03-31T07:14:39.596Z,93628.00
2024-03-31T07:15:39.693Z,93625.00
2024-03-31T07:16:39.746Z,93632.00
2024-03-31T07:17:39.839Z,93616.00
2024-03-31T07:18:39.890Z,93616.00
2024-03-31T07:19:39.980Z,93595.00
2024-03-31T07:20:40.047Z,93612.00
2024-03-31T07:21:40.167Z,93618.00
2024-03-31T07:22:40.755Z,93604.00
2024-03-31T07:23:41.660Z,93611.00
2024-03-31T07:24:40.321Z,93602.00
2024-03-31T07:25:40.387Z,93607.00
2024-03-31T07:26:40.466Z,93601.00
2024-03-31T07:27:40.518Z,93597.00
2024-03-31T07:28:40.590Z,93600.00
2024-03-31T07:29:40.725Z,93610.00
2024-03-31T07:30:40.729Z,93594.00
2024-03-31T07:31:40.764Z,93603.00
2024-03-31T07:32:40.850Z,93590.00
2024-03-31T07:33:40.892Z,93581.00
2024-03-31T07:34:40.988Z,93589.00
2024-03-31T07:35:41.096Z,93597.00
2024-03-31T07:36:41.161Z,93582.00
2024-03-31T07:37:41.225Z,93576.00
2024-03-31T07:38:41.341Z,93571.00
2024-03-31T07:39:41.424Z,93570.00
2024-03-31T07:40:41.498Z,93571.00
2024-03-31T07:41:41.558Z,93562.00
2024-03-31T07:42:41.646Z,93571.00
2024-03-31T07:43:41.739Z,93584.00
2024-03-31T07:44:41.813Z,93570.00
2024-03-31T07:45:41.893Z,93573.00
2024-03-31T07:46:41.966Z,93574.00
2024-03-31T07:47:42.053Z,93567.00
2024-03-31T07:48:42.120Z,93565.00
2024-03-31T07:49:42.215Z,93560.00
2024-03-31T07:50:42.312Z,93580.00
2024-03-31T07:51:42.378Z,93566.00
2024-03-31T07:52:43.827Z,93556.00
2024-03-31T07:53:42.531Z,93558.00
2024-03-31T07:54:42.594Z,93554.00
2024-03-31T07:55:42.682Z,93560.00
2024-03-31T07:56:42.744Z,93563.00
2024-03-31T07:57:42.763Z,93553.00
2024-03-31T07:58:42.817Z,93555.00
2024-03-31T07:59:42.879Z,93567.00
2024-03-31T08:00:42.945Z,93552.00
2024-03-31T08:01:43.000Z,93566.00
2024-03-31T08:02:43.033Z,93546.00
2024-03-31T08:03:43.115Z,93561.00
2024-03-31T08:04:43.211Z,93552.00
2024-03-31T08:05:43.317Z,93544.00
2024-03-31T08:06:43.379Z,93557.00
2024-03-31T08:07:43.451Z,93564.00
2024-03-31T08:08:43.497Z,93578.00
2024-03-31T08:09:43.615Z,93566.00
2024-03-31T08:10:43.734Z,93541.00
2024-03-31T08:11:43.764Z,93542.00
2024-03-31T08:12:43.847Z,93526.00
2024-03-31T08:13:43.922Z,93551.00
2024-03-31T08:14:44.001Z,93554.00
2024-03-31T08:15:44.089Z,93550.00
2024-03-31T08:16:44.186Z,93539.00
2024-03-31T08:17:44.277Z,93556.00
2024-03-31T08:18:44.334Z,93557.00
2024-03-31T08:19:44.409Z,93555.00
2024-03-31T08:20:44.521Z,93546.00
2024-03-31T08:21:44.661Z,93550.00
2024-03-31T08:22:44.689Z,93548.00
2024-03-31T08:23:44.783Z,93535.00
2024-03-31T08:24:44.851Z,93546.00
2024-03-31T08:25:44.947Z,93544.00
2024-03-31T08:26:44.981Z,93559.00
2024-03-31T08:27:45.070Z,93533.00
2024-03-31T08:28:45.141Z,93543.00
2024-03-31T08:29:45.252Z,93542.00
2024-03-31T08:30:45.634Z,93540.00
2024-03-31T08:31:45.436Z,93538.00
2024-03-31T08:32:47.507Z,93535.00
2024-03-31T08:33:45.525Z,93531.00
2024-03-31T08:34:45.515Z,93525.00
2024-03-31T08:35:45.513Z,93534.00
2024-03-31T08:36:45.582Z,93541.00
2024-03-31T08:37:45.503Z,93546.00
2024-03-31T08:38:45.501Z,93552.00
2024-03-31T08:39:45.518Z,93544.00
2024-03-31T08:40:45.503Z,93550.00
2024-03-31T08:41:45.531Z,93551.00
2024-03-31T08:42:45.525Z,93539.00
2024-03-31T08:43:45.519Z,93540.00
2024-03-31T08:44:45.536Z,93550.00
2024-03-31T08:45:45.560Z,93547.00
2024-03-31T08:46:45.519Z,93543.00
2024-03-31T08:47:45.534Z,93534.00
2024-03-31T08:48:45.527Z,93531.00
2024-03-31T08:49:45.534Z,93534.00
2024-03-31T08:50:45.529Z,93539.00
2024-03-31T08:51:45.594Z,93527.00
2024-03-31T08:52:45.607Z,93531.00
2024-03-31T08:53:45.589Z,93528.00
2024-03-31T08:54:45.590Z,93529.00
2024-03-31T08:55:45.577Z,93534.00
2024-03-31T08:56:45.564Z,93537.00
2024-03-31T08:57:45.569Z,93538.00
2024-03-31T08:58:45.604Z,93544.00
2024-03-31T08:59:45.576Z,93521.00
2024-03-31T09:00:45.611Z,93538.00
2024-03-31T09:01:45.601Z,93542.00
2024-03-31T09:02:45.608Z,93556.00
2024-03-31T09:03:45.571Z,93548.00
2024-03-31T09:04:45.575Z,93540.00
2024-03-31T09:05:45.583Z,93532.00
2024-03-31T09:06:45.655Z,93535.00
2024-03-31T09:07:45.719Z,93528.00
2024-03-31T09:08:45.768Z,93532.00
2024-03-31T09:09:45.824Z,93532.00
2024-03-31T09:10:45.877Z,93515.00
2024-03-31T09:11:45.946Z,93520.00
2024-03-31T09:12:46.011Z,93514.00
2024-03-31T09:13:46.123Z,93518.00
2024-03-31T09:14:46.207Z,93511.00
2024-03-31T09:15:46.327Z,93521.00
2024-03-31T09:16:46.395Z,93511.00
2024-03-31T09:17:46.472Z,93507.00
2024-03-31T09:18:46.570Z,93508.00
2024-03-31T09:19:46.677Z,93522.00
2024-03-31T09:20:46.770Z,93528.00
2024-03-31T09:21:46.890Z,93511.00
2024-03-31T09:22:46.944Z,93505.00
2024-03-31T09:23:47.030Z,93499.00
2024-03-31T09:24:47.151Z,93519.00
2024-03-31T09:25:47.222Z,93544.00
2024-03-31T09:26:47.345Z,93517.00
2024-03-31T09:27:47.430Z,93525.00
2024-03-31T09:28:47.466Z,93488.00
2024-03-31T09:29:47.574Z,93519.00
2024-03-31T09:30:47.665Z,93520.00
2024-03-31T09:31:47.697Z,93544.00
2024-03-31T09:32:47.851Z,93563.00
2024-03-31T09:33:47.902Z,93583.00
2024-03-31T09:34:47.939Z,93568.00
2024-03-31T09:35:48.037Z,93535.00
2024-03-31T09:36:48.129Z,93594.00
2024-03-31T09:37:48.220Z,93544.00
2024-03-31T09:38:48.310Z,93544.00
2024-03-31T09:39:48.463Z,93521.00
2024-03-31T09:40:48.483Z,93535.00
2024-03-31T09:41:48.631Z,93541.00
2024-03-31T09:42:48.754Z,93541.00
2024-03-31T09:43:49.592Z,93538.00
2024-03-31T09:44:48.965Z,93528.00
2024-03-31T09:45:49.076Z,93559.00
2024-03-31T09:46:49.152Z,93545.00
2024-03-31T09:47:49.245Z,93537.00
2024-03-31T09:48:49.362Z,93535.00
2024-03-31T09:49:49.450Z,93539.00
2024-03-31T09:50:50.561Z,93527.00
2024-03-31T09:51:49.678Z,93527.00
2024-03-31T09:52:49.702Z,93522.00
2024-03-31T09:53:49.742Z,93519.00
2024-03-31T09:54:49.803Z,93523.00
2024-03-31T09:55:49.860Z,93522.00
2024-03-31T09:56:49.910Z,93519.00
2024-03-31T09:57:49.947Z,93522.00
2024-03-31T09:58:50.040Z,93514.00
2024-03-31T09:59:50.143Z,93508.00
2024-03-31T10:00:50.261Z,93506.00
2024-03-31T10:01:50.358Z,93501.00
2024-03-31T10:02:50.452Z,93510.00
2024-03-31T10:03:50.612Z,93516.00
2024-03-31T10:05:28.319Z,93520.00
2024-03-31T10:06:28.382Z,93523.00
2024-03-31T10:07:28.447Z,93529.00
2024-03-31T10:08:28.448Z,93520.00
2024-03-31T10:09:28.470Z,93518.00
2024-03-31T10:10:28.519Z,93510.00
2024-03-31T10:11:28.578Z,93505.00
2024-03-31T10:12:28.644Z,93501.00
2024-03-31T10:13:31.119Z,93502.00
2024-03-31T10:14:28.768Z,93501.00
2024-03-31T10:15:28.756Z,93506.00
2024-03-31T10:16:28.771Z,93508.00
2024-03-31T10:17:28.776Z,93512.00
2024-03-31T10:18:28.751Z,93504.00
2024-03-31T10:19:28.744Z,93522.00
2024-03-31T10:20:28.752Z,93516.00
2024-03-31T10:21:28.767Z,93518.00
2024-03-31T10:22:28.770Z,93517.00
2024-03-31T10:23:28.742Z,93521.00
2024-03-31T10:24:28.748Z,93525.00
2024-03-31T10:26:33.590Z,93523.00
2024-03-31T10:27:33.605Z,93526.00
2024-03-31T10:28:33.593Z,93526.00
2024-03-31T10:29:33.567Z,93523.00
2024-03-31T10:30:33.572Z,93521.00
2024-03-31T10:31:33.574Z,93518.00
2024-03-31T10:32:33.602Z,93522.00
2024-03-31T10:33:40.817Z,93530.00
2024-03-31T10:34:34.599Z,93527.00
2024-03-31T10:35:33.604Z,93526.00
2024-03-31T10:36:33.620Z,93534.00
2024-03-31T10:37:33.587Z,93527.00
2024-03-31T10:38:33.590Z,93529.00
2024-03-31T10:39:33.610Z,93525.00
2024-03-31T10:40:33.604Z,93517.00
2024-03-31T10:41:36.423Z,93523.00
2024-03-31T10:42:33.635Z,93524.00
2024-03-31T10:43:33.630Z,93512.00
2024-03-31T10:44:33.604Z,93525.00
2024-03-31T10:45:33.609Z,93539.00
2024-03-31T10:46:33.616Z,93540.00
2024-03-31T10:47:33.600Z,93526.00
2024-03-31T10:48:33.598Z,93546.00
2024-03-31T10:49:33.601Z,93550.00
2024-03-31T10:50:33.605Z,93536.00
2024-03-31T10:51:33.626Z,93563.00
2024-03-31T10:52:33.751Z,93563.00
2024-03-31T10:53:33.624Z,93550.00
2024-03-31T10:54:33.610Z,93541.00
2024-03-31T10:55:33.652Z,93536.00
2024-03-31T10:56:35.981Z,93535.00
2024-03-31T10:57:33.627Z,93542.00
2024-03-31T10:58:33.626Z,93548.00
2024-03-31T10:59:33.633Z,93555.00
2024-03-31T11:00:33.606Z,93556.00
2024-03-31T11:01:33.629Z,93549.00
2024-03-31T11:02:33.625Z,93552.00
2024-03-31T11:03:33.620Z,93552.00
2024-03-31T11:04:33.628Z,93550.00
2024-03-31T11:05:33.656Z,93542.00
2024-03-31T11:06:33.650Z,93543.00
2024-03-31T11:07:33.666Z,93542.00
2024-03-31T11:08:33.627Z,93530.00
2024-03-31T11:09:33.638Z,93522.00
2024-03-31T11:10:33.679Z,93521.00
2024-03-31T11:11:33.633Z,93528.00
2024-03-31T11:12:33.654Z,93527.00
2024-03-31T11:13:33.672Z,93537.00
2024-03-31T11:14:33.642Z,93533.00
2024-03-31T11:15:33.640Z,93538.00
2024-03-31T11:16:33.651Z,93547.00
2024-03-31T11:17:33.656Z,93546.00
2024-03-31T11:18:33.675Z,93544.00
2024-03-31T11:19:33.752Z,93553.00
2024-03-31T11:20:33.783Z,93566.00
2024-03-31T11:21:33.845Z,93575.00
2024-03-31T11:22:33.930Z,93581.00
2024-03-31T11:23:33.981Z,93581.00
2024-03-31T11:24:34.052Z,93598.00
2024-03-31T11:25:34.129Z,93590.00
2024-03-31T11:26:34.173Z,93596.00
2024-03-31T11:27:34.239Z,93594.00
2024-03-31T11:28:34.268Z,93595.00
2024-03-31T11:29:34.360Z,93592.00
2024-03-31T11:30:34.457Z,93606.00
2024-03-31T11:31:34.581Z,93617.00
2024-03-31T11:32:34.682Z,93616.00
2024-03-31T11:33:34.792Z,93635.00
2024-03-31T11:34:34.852Z,93631.00
2024-03-31T11:35:35.014Z,93636.00
2024-03-31T11:36:35.076Z,93628.00
2024-03-31T11:37:35.189Z,93633.00
2024-03-31T11:38:35.290Z,93636.00
2024-03-31T11:39:35.412Z,93624.00
2024-03-31T11:40:35.507Z,93640.00
2024-03-31T11:41:35.563Z,93630.00
2024-03-31T11:42:36.735Z,93628.00
2024-03-31T11:43:35.760Z,93628.00
2024-03-31T11:44:35.801Z,93631.00
2024-03-31T11:45:35.848Z,93628.00
2024-03-31T11:46:35.913Z,93636.00